< < Back
Terminal Aerodrome Forecast


Current Version              Previous Versions:   1  2  3  4  5  6  7  8  9  

Terminal Aerodrome Forecast

678
FTUS42 KFFC 290542
TAFATL
TAF
KATL 290542Z 2906/3012 09005KT P6SM FEW140 SCT250
     FM291000 05004KT P6SM SCT250
     FM291400 34005KT P6SM FEW040 SCT120
     FM291800 35007KT P6SM SCT060 SCT120
     FM292300 35006KT P6SM FEW080
     FM300300 03004KT P6SM SKC
     FM300800 34003KT P6SM SKC=



Latest METAR

886
SAUS70 KWBC 291500 RRF
MTRATL
METAR KATL 291452Z 34004KT 10SM FEW030 BKN250 26/17 A3014 RMK AO2 SLP195
T02560172 50000


USA.gov is the U.S. government's official web portal to all federal, state and local government web resources and services.